Time;durP1;ratioP1;P1;durP2;ratioP2;P2;SDS_P1;SDS_P2;PMS_P1;PMS_P2;Temp;Humidity;BMP_temperature;BMP_pressure;BME280_temperature;BME280_humidity;BME280_pressure;Samples;Min_cycle;Max_cycle;Signal;HPM_P1;HPM_P2
2023/06/02 00:01:13;;;;;;;13.20;9.07;;;;;;;;;;5092564;28;20489;-72
2023/06/02 00:03:42;;;;;;;9.40;8.13;;;;;;;;;;5093014;28;20457;-73
2023/06/02 00:06:10;;;;;;;8.80;7.90;;;;;;;;;;5096097;28;20511;-73
2023/06/02 00:08:38;;;;;;;12.00;9.20;;;;;;;;;;5095932;28;20455;-72
2023/06/02 00:11:05;;;;;;;12.40;7.80;;;;;;;;;;5096057;28;20506;-73
2023/06/02 00:13:34;;;;;;;11.93;8.67;;;;;;;;;;5096162;28;20478;-73
2023/06/02 00:16:02;;;;;;;11.60;9.77;;;;;;;;;;5096165;28;20954;-73
2023/06/02 00:18:32;;;;;;;12.33;7.93;;;;;;;;;;5095861;28;20450;-73
2023/06/02 00:21:01;;;;;;;10.53;9.10;;;;;;;;;;5095890;28;20896;-73
2023/06/02 00:23:29;;;;;;;9.37;8.40;;;;;;;;;;5095821;28;20951;-73
2023/06/02 00:25:57;;;;;;;9.70;8.43;;;;;;;;;;5095998;28;20455;-73
2023/06/02 00:28:24;;;;;;;11.13;8.70;;;;;;;;;;5095539;28;20458;-73
2023/06/02 00:30:52;;;;;;;9.23;7.47;;;;;;;;;;5095705;28;20450;-73
2023/06/02 00:33:20;;;;;;;11.53;7.60;;;;;;;;;;5095653;28;20538;-73
2023/06/02 00:35:47;;;;;;;12.23;8.83;;;;;;;;;;5095693;28;20458;-72
2023/06/02 00:38:14;;;;;;;12.13;9.10;;;;;;;;;;5095683;28;20450;-73
2023/06/02 00:40:42;;;;;;;9.13;7.70;;;;;;;;;;5095461;28;20483;-72
2023/06/02 00:43:09;;;;;;;10.60;8.40;;;;;;;;;;5095401;28;20813;-73
2023/06/02 00:45:36;;;;;;;12.17;9.43;;;;;;;;;;5095551;28;20458;-73
2023/06/02 00:48:05;;;;;;;12.33;10.03;;;;;;;;;;5095208;28;20525;-72
2023/06/02 00:50:33;;;;;;;9.63;8.73;;;;;;;;;;5095549;28;20467;-73
2023/06/02 00:53:01;;;;;;;13.57;8.90;;;;;;;;;;5095354;28;20803;-73
2023/06/02 00:55:29;;;;;;;10.17;8.10;;;;;;;;;;5095310;28;20936;-73
2023/06/02 00:57:58;;;;;;;18.70;10.70;;;;;;;;;;5095173;28;20951;-73
2023/06/02 01:00:26;;;;;;;10.97;9.80;;;;;;;;;;5094785;28;20498;-73
2023/06/02 01:02:53;;;;;;;10.83;9.30;;;;;;;;;;5095274;28;20530;-73
2023/06/02 01:05:22;;;;;;;9.83;8.83;;;;;;;;;;5094947;28;20446;-73
2023/06/02 01:07:51;;;;;;;10.97;8.93;;;;;;;;;;5095071;28;20474;-72
2023/06/02 01:10:19;;;;;;;11.00;9.13;;;;;;;;;;5094723;28;20473;-72
2023/06/02 01:12:46;;;;;;;11.47;9.20;;;;;;;;;;5095011;28;20447;-73
2023/06/02 01:15:14;;;;;;;14.60;10.13;;;;;;;;;;5094819;28;20943;-73
2023/06/02 01:17:45;;;;;;;15.40;10.73;;;;;;;;;;5094889;28;20453;-73
2023/06/02 01:20:13;;;;;;;12.73;9.87;;;;;;;;;;5094603;28;20473;-73
2023/06/02 01:22:44;;;;;;;9.93;8.90;;;;;;;;;;5094832;28;20947;-73
2023/06/02 01:25:19;;;;;;;18.83;9.43;;;;;;;;;;5094572;28;20494;-73
2023/06/02 01:27:46;;;;;;;13.57;10.50;;;;;;;;;;5094718;28;20537;-73
2023/06/02 01:30:14;;;;;;;15.20;12.17;;;;;;;;;;5094229;28;20482;-73
2023/06/02 01:32:44;;;;;;;19.20;11.20;;;;;;;;;;5094610;28;20489;-73
2023/06/02 01:35:11;;;;;;;11.80;9.67;;;;;;;;;;5094529;28;20478;-73
2023/06/02 01:37:41;;;;;;;11.10;9.80;;;;;;;;;;5094493;28;21334;-73
2023/06/02 01:40:10;;;;;;;23.37;10.07;;;;;;;;;;5094050;28;20889;-73
2023/06/02 01:42:39;;;;;;;11.80;10.30;;;;;;;;;;5094244;28;20490;-72
2023/06/02 01:45:07;;;;;;;16.20;11.27;;;;;;;;;;5094411;28;20451;-72
2023/06/02 01:47:35;;;;;;;13.27;10.87;;;;;;;;;;5093595;28;20482;-72
2023/06/02 01:50:03;;;;;;;14.27;10.13;;;;;;;;;;5093931;28;20467;-72
2023/06/02 01:52:31;;;;;;;17.33;13.00;;;;;;;;;;5094028;28;20443;-73
2023/06/02 01:54:59;;;;;;;13.00;9.40;;;;;;;;;;5094000;28;20837;-73
2023/06/02 01:57:27;;;;;;;13.87;11.03;;;;;;;;;;5093897;28;20465;-73
2023/06/02 01:59:56;;;;;;;12.97;11.10;;;;;;;;;;5093893;28;20475;-73
2023/06/02 02:02:23;;;;;;;13.97;10.37;;;;;;;;;;5093930;28;21002;-73
2023/06/02 02:04:50;;;;;;;12.30;10.77;;;;;;;;;;5094011;28;20876;-73
2023/06/02 02:07:19;;;;;;;14.20;11.90;;;;;;;;;;5093940;28;20457;-73
2023/06/02 02:09:46;;;;;;;10.67;9.63;;;;;;;;;;5093665;28;20466;-73
2023/06/02 02:12:14;;;;;;;15.40;11.20;;;;;;;;;;5093837;28;20951;-72
2023/06/02 02:14:41;;;;;;;13.27;9.90;;;;;;;;;;5093796;28;20486;-73
2023/06/02 02:17:11;;;;;;;13.23;10.67;;;;;;;;;;5093631;28;20447;-73
2023/06/02 02:19:38;;;;;;;12.10;9.73;;;;;;;;;;5093503;28;20566;-73
2023/06/02 02:22:05;;;;;;;11.27;9.80;;;;;;;;;;5093478;28;21043;-73
2023/06/02 02:24:33;;;;;;;15.50;11.03;;;;;;;;;;5093743;28;20439;-73
2023/06/02 02:27:00;;;;;;;14.13;11.00;;;;;;;;;;5093419;28;20847;-73
2023/06/02 02:29:27;;;;;;;13.40;11.33;;;;;;;;;;5093218;28;20486;-73
2023/06/02 02:31:55;;;;;;;18.47;12.17;;;;;;;;;;5093598;28;21042;-73
2023/06/02 02:34:24;;;;;;;17.70;11.30;;;;;;;;;;5093508;28;20474;-73
2023/06/02 02:36:51;;;;;;;15.40;10.43;;;;;;;;;;5093459;28;20951;-73
2023/06/02 02:39:20;;;;;;;11.90;10.70;;;;;;;;;;5093122;28;20486;-73
2023/06/02 02:41:47;;;;;;;12.50;9.93;;;;;;;;;;5093266;28;20570;-74
2023/06/02 02:44:14;;;;;;;11.93;10.80;;;;;;;;;;5093191;28;20455;-73
2023/06/02 02:46:41;;;;;;;13.80;10.03;;;;;;;;;;5093283;28;20447;-72
2023/06/02 02:49:08;;;;;;;15.23;12.17;;;;;;;;;;5092343;28;20474;-73
2023/06/02 02:51:37;;;;;;;14.17;11.10;;;;;;;;;;5093311;28;20454;-73
2023/06/02 02:54:04;;;;;;;21.27;12.40;;;;;;;;;;5093197;28;20474;-73
2023/06/02 02:56:32;;;;;;;13.40;12.00;;;;;;;;;;5093089;28;20519;-73
2023/06/02 02:58:59;;;;;;;18.63;11.23;;;;;;;;;;5092847;28;20490;-72
2023/06/02 03:01:26;;;;;;;12.50;11.20;;;;;;;;;;5092990;28;20508;-73
2023/06/02 03:03:53;;;;;;;12.47;11.17;;;;;;;;;;5093104;28;20516;-73
2023/06/02 03:06:21;;;;;;;12.70;10.67;;;;;;;;;;5093048;28;20458;-73
2023/06/02 03:08:49;;;;;;;13.13;11.70;;;;;;;;;;5093034;28;20489;-73
2023/06/02 03:11:16;;;;;;;11.90;10.70;;;;;;;;;;5092886;28;20848;-73
2023/06/02 03:13:43;;;;;;;12.60;11.30;;;;;;;;;;5093133;28;20455;-73
2023/06/02 03:16:11;;;;;;;12.20;10.70;;;;;;;;;;5092239;28;20455;-73
2023/06/02 03:18:38;;;;;;;11.93;10.73;;;;;;;;;;5092491;28;20938;-73
2023/06/02 03:21:06;;;;;;;12.87;11.17;;;;;;;;;;5092234;28;20486;-73
2023/06/02 03:23:33;;;;;;;12.47;10.30;;;;;;;;;;5092343;28;20447;-73
2023/06/02 03:26:02;;;;;;;12.20;10.77;;;;;;;;;;5092282;28;20543;-73
2023/06/02 03:28:29;;;;;;;12.57;11.30;;;;;;;;;;5091963;28;20451;-73
2023/06/02 03:30:56;;;;;;;16.73;12.80;;;;;;;;;;5092226;28;20477;-73
2023/06/02 03:33:23;;;;;;;14.30;11.60;;;;;;;;;;5092109;28;20458;-73
2023/06/02 03:35:50;;;;;;;13.90;11.67;;;;;;;;;;5092179;28;20969;-73
2023/06/02 03:38:18;;;;;;;14.63;10.77;;;;;;;;;;5091867;28;20458;-73
2023/06/02 03:40:45;;;;;;;13.87;12.10;;;;;;;;;;5095733;28;20819;-73
2023/06/02 03:43:14;;;;;;;12.07;10.53;;;;;;;;;;5095854;28;20488;-73
2023/06/02 03:45:41;;;;;;;14.03;11.47;;;;;;;;;;5095891;28;20458;-73
2023/06/02 03:48:08;;;;;;;12.57;10.43;;;;;;;;;;5095024;28;20466;-73
2023/06/02 03:50:36;;;;;;;14.53;10.90;;;;;;;;;;5095286;28;20992;-73
2023/06/02 03:53:04;;;;;;;14.17;11.03;;;;;;;;;;5095750;28;20446;-73
2023/06/02 03:55:32;;;;;;;14.90;11.27;;;;;;;;;;5095602;28;20826;-73
2023/06/02 03:57:59;;;;;;;12.70;11.17;;;;;;;;;;5095591;28;20457;-73
2023/06/02 04:00:28;;;;;;;12.20;10.73;;;;;;;;;;5095578;28;20923;-73
2023/06/02 04:02:57;;;;;;;14.40;11.33;;;;;;;;;;5095532;28;20496;-73
2023/06/02 04:05:24;;;;;;;13.23;11.20;;;;;;;;;;5095387;28;20454;-73
2023/06/02 04:07:52;;;;;;;12.00;10.63;;;;;;;;;;5095485;28;20472;-73
2023/06/02 04:10:19;;;;;;;21.90;10.77;;;;;;;;;;5095120;28;20503;-73
2023/06/02 04:12:46;;;;;;;11.47;9.03;;;;;;;;;;5095726;28;20482;-73
2023/06/02 04:15:14;;;;;;;10.73;9.27;;;;;;;;;;5095404;28;20447;-73
2023/06/02 04:17:42;;;;;;;12.53;8.80;;;;;;;;;;5095370;28;20969;-73
2023/06/02 04:20:09;;;;;;;14.10;8.87;;;;;;;;;;5095209;28;20955;-73
2023/06/02 04:22:36;;;;;;;11.80;8.70;;;;;;;;;;5095076;28;20500;-73
2023/06/02 04:25:04;;;;;;;10.23;8.87;;;;;;;;;;5095354;28;20458;-73
2023/06/02 04:27:31;;;;;;;10.60;8.77;;;;;;;;;;5095253;28;20451;-73
2023/06/02 04:29:59;;;;;;;11.90;10.13;;;;;;;;;;5094861;28;20466;-73
2023/06/02 04:32:26;;;;;;;10.90;8.70;;;;;;;;;;5095124;28;20492;-74
2023/06/02 04:34:55;;;;;;;10.27;8.53;;;;;;;;;;5095207;28;20818;-74
2023/06/02 04:37:22;;;;;;;11.97;8.10;;;;;;;;;;5094914;28;20905;-74
2023/06/02 04:39:50;;;;;;;10.30;9.07;;;;;;;;;;5094716;28;20471;-73
2023/06/02 04:42:17;;;;;;;9.00;7.73;;;;;;;;;;5094753;28;20486;-73
2023/06/02 04:44:45;;;;;;;11.43;7.90;;;;;;;;;;5094865;28;20458;-74
2023/06/02 04:47:12;;;;;;;9.23;8.33;;;;;;;;;;5093996;28;20481;-74
2023/06/02 04:49:40;;;;;;;9.63;8.13;;;;;;;;;;5094070;28;20840;-74
2023/06/02 04:52:09;;;;;;;10.20;7.93;;;;;;;;;;5094643;28;20502;-74
2023/06/02 04:54:36;;;;;;;7.87;7.10;;;;;;;;;;5094592;28;20491;-74
2023/06/02 04:57:05;;;;;;;7.57;6.50;;;;;;;;;;5094474;28;20516;-74
2023/06/02 04:59:33;;;;;;;9.57;8.00;;;;;;;;;;5094755;28;20806;-74
2023/06/02 05:02:00;;;;;;;12.77;7.80;;;;;;;;;;5094404;28;20549;-74
2023/06/02 05:04:27;;;;;;;14.07;8.97;;;;;;;;;;5094938;28;20455;-74
2023/06/02 05:06:55;;;;;;;8.00;7.17;;;;;;;;;;5094542;28;20457;-73
2023/06/02 05:09:23;;;;;;;12.17;7.73;;;;;;;;;;5094708;28;20483;-73
2023/06/02 05:11:50;;;;;;;7.33;6.73;;;;;;;;;;5094378;28;20533;-73
2023/06/02 05:14:18;;;;;;;7.97;7.17;;;;;;;;;;5094576;28;20458;-73
2023/06/02 05:16:45;;;;;;;7.60;6.83;;;;;;;;;;5094280;28;20450;-73
2023/06/02 05:19:12;;;;;;;7.87;7.17;;;;;;;;;;5094057;28;20494;-73
2023/06/02 05:21:39;;;;;;;7.50;6.80;;;;;;;;;;5094089;28;20477;-73
2023/06/02 05:24:06;;;;;;;13.60;7.40;;;;;;;;;;5094339;28;20457;-73
2023/06/02 05:26:35;;;;;;;12.53;6.93;;;;;;;;;;5093970;28;20446;-74
2023/06/02 05:29:02;;;;;;;8.00;6.33;;;;;;;;;;5093999;28;21002;-73
2023/06/02 05:31:29;;;;;;;9.03;7.53;;;;;;;;;;5094126;28;20820;-73
2023/06/02 05:33:56;;;;;;;9.67;8.00;;;;;;;;;;5093873;28;20482;-73
2023/06/02 05:36:23;;;;;;;11.50;7.83;;;;;;;;;;5094178;28;20936;-73
2023/06/02 05:38:50;;;;;;;17.93;8.37;;;;;;;;;;5094096;28;20520;-73
2023/06/02 05:41:17;;;;;;;8.23;7.53;;;;;;;;;;5093163;28;20518;-72
2023/06/02 05:43:46;;;;;;;14.80;6.70;;;;;;;;;;5092026;28;20494;-73
2023/06/02 05:46:13;;;;;;;9.60;8.03;;;;;;;;;;5092816;28;20849;-73
2023/06/02 05:48:40;;;;;;;9.53;7.53;;;;;;;;;;5092231;28;20493;-73
2023/06/02 05:51:07;;;;;;;10.80;7.40;;;;;;;;;;5092239;28;20450;-73
2023/06/02 05:53:34;;;;;;;9.47;7.33;;;;;;;;;;5092657;28;20938;-73
2023/06/02 05:56:01;;;;;;;7.20;6.60;;;;;;;;;;5092997;28;20458;-74
2023/06/02 05:58:29;;;;;;;10.50;8.17;;;;;;;;;;5093078;28;20536;-74
2023/06/02 06:00:57;;;;;;;7.87;7.17;;;;;;;;;;5093378;28;20445;-74
2023/06/02 06:03:24;;;;;;;9.20;6.30;;;;;;;;;;5092615;28;20523;-73
2023/06/02 06:05:51;;;;;;;7.43;6.73;;;;;;;;;;5093415;28;20463;-74
2023/06/02 06:08:18;;;;;;;7.70;5.97;;;;;;;;;;5093159;28;20446;-73
2023/06/02 06:10:46;;;;;;;6.67;6.07;;;;;;;;;;5093243;28;20819;-73
2023/06/02 06:13:13;;;;;;;6.00;5.37;;;;;;;;;;5093071;28;20458;-73
2023/06/02 06:15:40;;;;;;;6.60;6.10;;;;;;;;;;5093411;28;20446;-74
2023/06/02 06:18:08;;;;;;;7.70;6.03;;;;;;;;;;5093249;28;20454;-74
2023/06/02 06:20:35;;;;;;;10.33;6.77;;;;;;;;;;5092871;28;20469;-74
2023/06/02 06:23:02;;;;;;;7.27;6.60;;;;;;;;;;5093220;28;20486;-74
2023/06/02 06:25:29;;;;;;;6.93;6.17;;;;;;;;;;5090803;28;20958;-73
2023/06/02 06:27:57;;;;;;;6.70;6.10;;;;;;;;;;5090804;28;20489;-74
2023/06/02 06:30:24;;;;;;;6.50;5.87;;;;;;;;;;5091514;28;20469;-74
2023/06/02 06:32:51;;;;;;;6.00;5.57;;;;;;;;;;5091515;28;20454;-74
2023/06/02 06:35:20;;;;;;;5.50;5.00;;;;;;;;;;5091529;28;20454;-74
2023/06/02 06:37:47;;;;;;;8.97;5.27;;;;;;;;;;5091393;28;20457;-73
2023/06/02 06:40:14;;;;;;;6.10;5.60;;;;;;;;;;5091045;28;20478;-74
2023/06/02 06:42:41;;;;;;;6.47;5.73;;;;;;;;;;5091427;28;20477;-74
2023/06/02 06:45:08;;;;;;;6.47;5.87;;;;;;;;;;5091644;28;20458;-74
2023/06/02 06:47:36;;;;;;;6.63;5.07;;;;;;;;;;5091494;28;20446;-74
2023/06/02 06:50:03;;;;;;;10.63;5.90;;;;;;;;;;5091001;28;20522;-74
2023/06/02 06:52:31;;;;;;;8.10;7.40;;;;;;;;;;5091251;28;20817;-74
2023/06/02 06:54:58;;;;;;;6.63;5.97;;;;;;;;;;5090989;28;20454;-74
2023/06/02 06:57:26;;;;;;;10.70;9.60;;;;;;;;;;5080703;28;20997;-73
2023/06/02 06:59:53;;;;;;;5.97;5.30;;;;;;;;;;5086901;28;20486;-74
2023/06/02 07:02:20;;;;;;;7.73;5.37;;;;;;;;;;5090667;28;20493;-74
2023/06/02 07:04:47;;;;;;;7.43;6.03;;;;;;;;;;5090878;28;20457;-74
2023/06/02 07:07:14;;;;;;;6.90;5.40;;;;;;;;;;5091041;28;20454;-73
2023/06/02 07:09:43;;;;;;;6.40;5.63;;;;;;;;;;5090723;28;20493;-74
2023/06/02 07:12:10;;;;;;;6.37;5.77;;;;;;;;;;5090708;28;20523;-73
2023/06/02 07:14:37;;;;;;;8.67;6.40;;;;;;;;;;5082734;28;20451;-73
2023/06/02 07:17:04;;;;;;;7.43;5.87;;;;;;;;;;5075618;28;20451;-73
2023/06/02 07:19:31;;;;;;;7.17;5.60;;;;;;;;;;5074393;28;20842;-73
2023/06/02 07:21:58;;;;;;;8.30;5.77;;;;;;;;;;5075555;28;20558;-73
2023/06/02 07:24:25;;;;;;;6.10;5.60;;;;;;;;;;5075944;28;20478;-73
2023/06/02 07:26:54;;;;;;;6.40;5.70;;;;;;;;;;5076224;28;20940;-73
2023/06/02 07:29:22;;;;;;;6.17;5.57;;;;;;;;;;5075459;28;20471;-73
2023/06/02 07:31:49;;;;;;;5.17;4.67;;;;;;;;;;5075800;28;20955;-74
2023/06/02 07:34:16;;;;;;;8.83;5.50;;;;;;;;;;5075644;28;20970;-74
2023/06/02 07:36:44;;;;;;;8.97;5.53;;;;;;;;;;5075749;28;20527;-73
2023/06/02 07:39:12;;;;;;;6.30;5.43;;;;;;;;;;5075624;28;20927;-73
2023/06/02 07:41:39;;;;;;;6.00;5.40;;;;;;;;;;5075732;28;20526;-74
2023/06/02 07:44:07;;;;;;;11.03;6.47;;;;;;;;;;5075387;28;20490;-74
2023/06/02 07:46:34;;;;;;;6.13;5.63;;;;;;;;;;5075550;28;20955;-74
2023/06/02 07:49:01;;;;;;;6.93;4.93;;;;;;;;;;5074933;28;20578;-73
2023/06/02 07:51:28;;;;;;;7.37;4.70;;;;;;;;;;5075391;28;20935;-74
2023/06/02 07:53:56;;;;;;;10.00;5.33;;;;;;;;;;5075505;28;20443;-74
2023/06/02 07:56:23;;;;;;;5.67;5.00;;;;;;;;;;5075184;28;20837;-74
2023/06/02 07:58:50;;;;;;;7.17;5.40;;;;;;;;;;5075393;28;20478;-73
2023/06/02 08:01:18;;;;;;;5.70;5.00;;;;;;;;;;5075482;28;20452;-74
2023/06/02 08:03:45;;;;;;;7.90;5.60;;;;;;;;;;5079194;28;20481;-73
2023/06/02 08:06:14;;;;;;;6.63;4.80;;;;;;;;;;5074851;28;20449;-74
2023/06/02 08:08:41;;;;;;;6.93;5.00;;;;;;;;;;5074336;28;20486;-74
2023/06/02 08:11:08;;;;;;;10.27;5.57;;;;;;;;;;5074154;28;20978;-73
2023/06/02 08:13:35;;;;;;;8.40;5.30;;;;;;;;;;5075361;28;20455;-74
2023/06/02 08:16:02;;;;;;;7.27;6.47;;;;;;;;;;5075302;28;20455;-74
2023/06/02 08:18:31;;;;;;;6.43;5.83;;;;;;;;;;5075048;28;20458;-73
2023/06/02 08:20:58;;;;;;;4.70;4.20;;;;;;;;;;5075083;28;20466;-74
2023/06/02 08:23:25;;;;;;;5.10;4.60;;;;;;;;;;5075028;28;20490;-73
2023/06/02 08:25:54;;;;;;;6.50;5.67;;;;;;;;;;5074249;28;20550;-73
2023/06/02 08:28:24;;;;;;;5.83;5.10;;;;;;;;;;5074634;28;20459;-73
2023/06/02 08:30:52;;;;;;;5.23;4.73;;;;;;;;;;5074857;28;20455;-73
2023/06/02 08:33:21;;;;;;;6.77;4.47;;;;;;;;;;5074902;28;20455;-73
2023/06/02 08:35:50;;;;;;;4.90;4.50;;;;;;;;;;5074963;28;20499;-74
2023/06/02 08:38:18;;;;;;;6.03;5.20;;;;;;;;;;5074447;28;20456;-73
2023/06/02 08:40:46;;;;;;;5.03;4.63;;;;;;;;;;5074770;28;20475;-74
2023/06/02 08:43:14;;;;;;;5.23;4.67;;;;;;;;;;5074753;28;20479;-73
2023/06/02 08:45:41;;;;;;;7.17;5.23;;;;;;;;;;5074765;28;20455;-73
2023/06/02 08:48:09;;;;;;;8.10;4.70;;;;;;;;;;5074245;28;20452;-75
2023/06/02 08:50:37;;;;;;;10.03;4.30;;;;;;;;;;5074381;28;20468;-74
2023/06/02 08:53:06;;;;;;;4.87;4.40;;;;;;;;;;5074373;28;20451;-74
2023/06/02 08:55:39;;;;;;;6.23;4.97;;;;;;;;;;5074282;28;20447;-74
2023/06/02 08:58:06;;;;;;;7.30;4.70;;;;;;;;;;5074483;28;20447;-74
2023/06/02 09:00:33;;;;;;;9.23;4.70;;;;;;;;;;5074189;28;20494;-74
2023/06/02 09:03:00;;;;;;;7.03;5.00;;;;;;;;;;5074223;28;20479;-75
2023/06/02 09:05:29;;;;;;;6.83;5.57;;;;;;;;;;5074229;28;20447;-74
2023/06/02 09:08:08;;;;;;;6.03;4.37;;;;;;;;;;5074057;28;20456;-74
2023/06/02 09:10:39;;;;;;;6.63;4.20;;;;;;;;;;5074298;28;20841;-74
2023/06/02 09:13:07;;;;;;;5.47;3.87;;;;;;;;;;5074170;28;20455;-74
2023/06/02 09:15:35;;;;;;;7.63;6.93;;;;;;;;;;5074067;28;20955;-74
2023/06/02 09:18:12;;;;;;;8.50;5.27;;;;;;;;;;5073816;28;20489;-74
2023/06/02 09:20:41;;;;;;;4.80;3.90;;;;;;;;;;5073564;28;20501;-74
2023/06/02 09:23:10;;;;;;;5.33;4.47;;;;;;;;;;5073680;28;20484;-74
2023/06/02 09:25:40;;;;;;;6.83;4.27;;;;;;;;;;5073836;28;20463;-74
2023/06/02 09:28:09;;;;;;;6.10;4.60;;;;;;;;;;5073896;28;20452;-74
2023/06/02 09:30:36;;;;;;;9.10;5.10;;;;;;;;;;5073578;28;20976;-74
2023/06/02 09:33:06;;;;;;;5.93;4.67;;;;;;;;;;5073783;28;20498;-74
2023/06/02 09:35:37;;;;;;;7.53;4.10;;;;;;;;;;5073671;28;20459;-74
2023/06/02 09:38:07;;;;;;;7.00;4.67;;;;;;;;;;5072739;28;20551;-74
2023/06/02 09:40:35;;;;;;;6.40;4.03;;;;;;;;;;5073410;28;20479;-74
2023/06/02 09:43:04;;;;;;;9.03;4.20;;;;;;;;;;5073343;28;20451;-73
2023/06/02 09:45:31;;;;;;;5.57;4.20;;;;;;;;;;5073536;28;20975;-74
2023/06/02 09:47:59;;;;;;;8.93;3.93;;;;;;;;;;5072973;28;20455;-74
2023/06/02 09:50:33;;;;;;;5.30;3.57;;;;;;;;;;5073160;28;20467;-74
2023/06/02 09:53:02;;;;;;;4.77;3.53;;;;;;;;;;5073133;28;20866;-75
2023/06/02 09:55:29;;;;;;;6.90;5.00;;;;;;;;;;5073405;28;20494;-74
2023/06/02 09:57:58;;;;;;;9.60;6.50;;;;;;;;;;5073092;28;20444;-74
2023/06/02 10:00:26;;;;;;;11.13;4.50;;;;;;;;;;5073056;28;20467;-74
2023/06/02 10:02:53;;;;;;;4.87;4.20;;;;;;;;;;5073046;28;20447;-74
2023/06/02 10:05:22;;;;;;;7.40;3.90;;;;;;;;;;5073037;28;20459;-74
2023/06/02 10:07:54;;;;;;;5.67;3.87;;;;;;;;;;5073022;28;20491;-74
2023/06/02 10:10:25;;;;;;;4.83;3.33;;;;;;;;;;5072530;28;20988;-74
2023/06/02 10:13:00;;;;;;;5.87;4.07;;;;;;;;;;5073060;28;20831;-74
2023/06/02 10:15:40;;;;;;;4.83;3.80;;;;;;;;;;5072845;28;20826;-74
2023/06/02 10:18:21;;;;;;;4.50;3.63;;;;;;;;;;5073026;28;20955;-74
2023/06/02 10:20:56;;;;;;;4.07;3.67;;;;;;;;;;5072648;28;20467;-74
2023/06/02 10:23:31;;;;;;;7.00;4.20;;;;;;;;;;5072747;28;20486;-75
2023/06/02 10:26:05;;;;;;;5.93;5.40;;;;;;;;;;5072831;28;20443;-74
2023/06/02 10:28:32;;;;;;;9.30;8.40;;;;;;;;;;5072615;28;20935;-74
2023/06/02 10:31:08;;;;;;;6.67;3.90;;;;;;;;;;5072580;28;20463;-74
2023/06/02 10:33:45;;;;;;;5.70;3.47;;;;;;;;;;5072702;28;20447;-74
2023/06/02 10:36:13;;;;;;;26.73;24.20;;;;;;;;;;5072513;28;20825;-74
2023/06/02 10:38:41;;;;;;;6.10;5.40;;;;;;;;;;5072287;28;20452;-74
2023/06/02 10:41:08;;;;;;;7.70;6.90;;;;;;;;;;5072335;28;20460;-74
2023/06/02 10:43:35;;;;;;;4.90;4.40;;;;;;;;;;5072360;28;20972;-74
2023/06/02 10:46:21;;;;;;;3.40;3.10;;;;;;;;;;5072409;28;20542;-74
2023/06/02 10:48:48;;;;;;;5.57;4.80;;;;;;;;;;5071803;28;20506;-74
2023/06/02 10:51:15;;;;;;;4.00;3.60;;;;;;;;;;5072354;28;20435;-74
2023/06/02 10:54:02;;;;;;;12.03;3.60;;;;;;;;;;5072452;28;20952;-74
2023/06/02 10:56:42;;;;;;;4.40;2.97;;;;;;;;;;5072318;28;20885;-74
2023/06/02 10:59:11;;;;;;;3.20;2.63;;;;;;;;;;5071705;28;20550;-74
2023/06/02 11:01:46;;;;;;;5.17;4.67;;;;;;;;;;5072362;28;20949;-74
2023/06/02 11:04:26;;;;;;;4.27;3.43;;;;;;;;;;5071900;28;20483;-74
2023/06/02 11:07:12;;;;;;;11.97;4.33;;;;;;;;;;5072216;28;20451;-74
2023/06/02 11:09:42;;;;;;;4.10;3.40;;;;;;;;;;5072068;28;20551;-74
2023/06/02 11:12:10;;;;;;;4.70;3.10;;;;;;;;;;5072171;28;20998;-74
2023/06/02 11:14:51;;;;;;;3.53;3.20;;;;;;;;;;5072486;28;20489;-74
2023/06/02 11:17:33;;;;;;;6.30;3.50;;;;;;;;;;5072062;28;20455;-74
2023/06/02 11:20:00;;;;;;;4.23;3.83;;;;;;;;;;5071865;28;20471;-74
2023/06/02 11:22:28;;;;;;;4.30;3.30;;;;;;;;;;5072063;28;20881;-74
2023/06/02 11:24:56;;;;;;;5.73;2.93;;;;;;;;;;5072009;28;20487;-74
2023/06/02 11:27:36;;;;;;;3.87;3.47;;;;;;;;;;5071874;28;20455;-74
2023/06/02 11:30:10;;;;;;;3.50;3.20;;;;;;;;;;5071761;28;20976;-74
2023/06/02 11:32:38;;;;;;;9.90;3.90;;;;;;;;;;5072311;28;20459;-77
2023/06/02 11:35:08;;;;;;;5.83;3.07;;;;;;;;;;5072007;28;20451;-77
2023/06/02 11:37:38;;;;;;;3.53;2.70;;;;;;;;;;5071912;28;20475;-77
2023/06/02 11:40:07;;;;;;;6.40;3.90;;;;;;;;;;5071874;28;20510;-77
2023/06/02 11:42:38;;;;;;;3.43;3.13;;;;;;;;;;5072048;28;20888;-77
2023/06/02 11:45:06;;;;;;;3.57;3.27;;;;;;;;;;5071929;28;20498;-76
2023/06/02 11:47:33;;;;;;;4.60;3.37;;;;;;;;;;5071523;28;20459;-76
2023/06/02 11:50:02;;;;;;;4.63;2.70;;;;;;;;;;5071390;28;20479;-76
2023/06/02 11:52:33;;;;;;;5.10;4.70;;;;;;;;;;5071851;28;21026;-77
2023/06/02 11:55:01;;;;;;;3.63;3.33;;;;;;;;;;5071852;28;20455;-76
2023/06/02 11:57:31;;;;;;;4.40;3.00;;;;;;;;;;5071738;28;20948;-77
2023/06/02 12:00:09;;;;;;;5.27;3.23;;;;;;;;;;5072339;28;20984;-77
2023/06/02 12:02:38;;;;;;;4.43;3.50;;;;;;;;;;5075745;28;20516;-78
2023/06/02 12:05:07;;;;;;;3.93;3.57;;;;;;;;;;5076212;28;20537;-77
2023/06/02 12:07:35;;;;;;;6.53;3.77;;;;;;;;;;5077092;28;20451;-78
2023/06/02 12:10:03;;;;;;;5.57;3.80;;;;;;;;;;5077359;28;20562;-78
2023/06/02 12:12:31;;;;;;;3.60;3.27;;;;;;;;;;5075972;28;20451;-78
2023/06/02 12:14:58;;;;;;;6.87;4.03;;;;;;;;;;5075814;28;20952;-78
2023/06/02 12:17:26;;;;;;;7.77;4.03;;;;;;;;;;5075493;28;20448;-77
2023/06/02 12:20:01;;;;;;;4.37;3.97;;;;;;;;;;5075136;28;20837;-77
2023/06/02 12:22:30;;;;;;;3.67;3.20;;;;;;;;;;5075396;28;20458;-77
2023/06/02 12:24:57;;;;;;;8.00;3.63;;;;;;;;;;5075072;28;20503;-77
2023/06/02 12:27:24;;;;;;;5.73;4.13;;;;;;;;;;5075181;28;20463;-77
2023/06/02 12:29:52;;;;;;;3.50;2.97;;;;;;;;;;5074746;28;20829;-78
2023/06/02 12:32:26;;;;;;;7.97;3.87;;;;;;;;;;5077003;28;20493;-77
2023/06/02 12:34:53;;;;;;;7.07;3.83;;;;;;;;;;5074945;28;20474;-77
2023/06/02 12:37:20;;;;;;;4.77;3.47;;;;;;;;;;5074946;28;20455;-77
2023/06/02 12:39:50;;;;;;;10.47;4.30;;;;;;;;;;5074637;28;20475;-77
2023/06/02 12:42:20;;;;;;;8.13;3.83;;;;;;;;;;5074759;28;20470;-77
2023/06/02 12:44:48;;;;;;;4.50;4.10;;;;;;;;;;5074287;28;20501;-78
2023/06/02 12:47:16;;;;;;;5.60;3.80;;;;;;;;;;5075498;28;20547;-78
2023/06/02 12:49:47;;;;;;;6.87;3.80;;;;;;;;;;5074689;28;20969;-77
2023/06/02 12:52:14;;;;;;;5.73;3.67;;;;;;;;;;5074456;28;20844;-77
2023/06/02 12:54:41;;;;;;;5.60;4.23;;;;;;;;;;5074467;28;20527;-77
2023/06/02 12:57:10;;;;;;;4.07;3.70;;;;;;;;;;5074288;28;20491;-78
2023/06/02 12:59:37;;;;;;;5.23;4.17;;;;;;;;;;5074250;28;20467;-77
2023/06/02 13:02:04;;;;;;;4.10;3.70;;;;;;;;;;5075038;28;20456;-78
2023/06/02 13:04:32;;;;;;;7.20;3.60;;;;;;;;;;5074551;28;21088;-77
2023/06/02 13:07:01;;;;;;;4.57;4.17;;;;;;;;;;5074135;28;20448;-77
2023/06/02 13:09:28;;;;;;;5.57;4.30;;;;;;;;;;5073999;28;20501;-76
2023/06/02 13:11:55;;;;;;;8.10;4.47;;;;;;;;;;5074159;28;20980;-77
2023/06/02 13:14:23;;;;;;;6.43;4.80;;;;;;;;;;5074186;28;20491;-76
2023/06/02 13:16:52;;;;;;;6.20;4.17;;;;;;;;;;5074176;28;20436;-76
2023/06/02 13:19:20;;;;;;;7.07;4.80;;;;;;;;;;5074871;28;20901;-76
2023/06/02 13:21:47;;;;;;;5.07;4.53;;;;;;;;;;5073839;28;20463;-75
2023/06/02 13:24:16;;;;;;;6.30;4.33;;;;;;;;;;5091379;28;20493;-74
2023/06/02 13:26:43;;;;;;;4.27;3.87;;;;;;;;;;5093921;28;20493;-75
2023/06/02 13:29:11;;;;;;;8.53;4.67;;;;;;;;;;5094011;28;20554;-76
2023/06/02 13:31:39;;;;;;;6.17;4.53;;;;;;;;;;5094342;28;20442;-76
2023/06/02 13:34:06;;;;;;;6.00;4.73;;;;;;;;;;5093981;28;20807;-77
2023/06/02 13:36:33;;;;;;;5.33;4.50;;;;;;;;;;5094269;28;20455;-76
2023/06/02 13:39:00;;;;;;;9.40;5.33;;;;;;;;;;5093775;28;20471;-77
2023/06/02 13:41:28;;;;;;;12.90;5.07;;;;;;;;;;5093959;28;20451;-76
2023/06/02 13:43:55;;;;;;;5.97;4.33;;;;;;;;;;5093864;28;20821;-77
2023/06/02 13:46:23;;;;;;;5.93;4.80;;;;;;;;;;5093939;28;20493;-77
2023/06/02 13:48:51;;;;;;;10.20;5.30;;;;;;;;;;5093393;28;20479;-76
2023/06/02 13:51:18;;;;;;;8.73;5.47;;;;;;;;;;5083970;28;20878;-75
2023/06/02 13:53:45;;;;;;;4.90;4.40;;;;;;;;;;5072189;28;20443;-75
2023/06/02 13:56:13;;;;;;;6.23;4.70;;;;;;;;;;5071984;28;20558;-74
2023/06/02 13:58:40;;;;;;;8.83;5.13;;;;;;;;;;5071129;28;20472;-75
2023/06/02 14:01:07;;;;;;;7.53;4.97;;;;;;;;;;5071822;28;20812;-75
2023/06/02 14:03:34;;;;;;;7.20;5.93;;;;;;;;;;5072448;28;20454;-75
2023/06/02 14:06:03;;;;;;;5.33;4.83;;;;;;;;;;5076373;28;20486;-74
2023/06/02 14:08:30;;;;;;;5.13;4.63;;;;;;;;;;5092982;28;20782;-75
2023/06/02 14:10:57;;;;;;;11.30;5.40;;;;;;;;;;5093298;28;20481;-75
2023/06/02 14:13:24;;;;;;;7.23;3.90;;;;;;;;;;5092870;28;20478;-74
2023/06/02 14:15:52;;;;;;;5.40;4.90;;;;;;;;;;5092926;28;20458;-75
2023/06/02 14:18:19;;;;;;;6.70;5.20;;;;;;;;;;5092031;28;20447;-76
2023/06/02 14:20:47;;;;;;;4.60;4.20;;;;;;;;;;5093171;28;20514;-75
2023/06/02 14:23:15;;;;;;;9.43;4.47;;;;;;;;;;5092795;28;20447;-75
2023/06/02 14:25:43;;;;;;;6.83;4.07;;;;;;;;;;5093201;28;21106;-75
2023/06/02 14:28:10;;;;;;;8.20;5.43;;;;;;;;;;5092909;28;20454;-74
2023/06/02 14:30:37;;;;;;;7.10;5.23;;;;;;;;;;5092889;28;20479;-73
2023/06/02 14:33:05;;;;;;;6.50;5.30;;;;;;;;;;5092930;28;20954;-73
2023/06/02 14:35:32;;;;;;;7.47;5.40;;;;;;;;;;5092576;28;20457;-73
2023/06/02 14:37:59;;;;;;;5.23;4.80;;;;;;;;;;5092817;28;20500;-73
2023/06/02 14:40:27;;;;;;;6.43;5.37;;;;;;;;;;5092809;28;20467;-73
2023/06/02 14:42:55;;;;;;;6.67;5.10;;;;;;;;;;5092874;28;20923;-73